sensor_id;sensor_type;location;lat;lon;timestamp;P1;durP1;ratioP1;P2;durP2;ratioP2
32918;SDS011;19280;42.646;21.150;2023-06-04T00:00:04;11.63;;;6.97;;
32918;SDS011;19280;42.646;21.150;2023-06-04T00:02:30;9.50;;;6.60;;
32918;SDS011;19280;42.646;21.150;2023-06-04T00:04:56;9.45;;;6.20;;
32918;SDS011;19280;42.646;21.150;2023-06-04T00:07:22;7.53;;;6.15;;
32918;SDS011;19280;42.646;21.150;2023-06-04T00:09:48;7.45;;;6.72;;
32918;SDS011;19280;42.646;21.150;2023-06-04T00:12:15;10.45;;;7.20;;
32918;SDS011;19280;42.646;21.150;2023-06-04T00:14:41;8.30;;;6.70;;
32918;SDS011;19280;42.646;21.150;2023-06-04T00:17:08;12.65;;;7.63;;
32918;SDS011;19280;42.646;21.150;2023-06-04T00:19:35;9.65;;;7.25;;
32918;SDS011;19280;42.646;21.150;2023-06-04T00:22:01;10.98;;;7.30;;
32918;SDS011;19280;42.646;21.150;2023-06-04T00:24:27;11.20;;;7.50;;
32918;SDS011;19280;42.646;21.150;2023-06-04T00:26:53;9.00;;;6.95;;
32918;SDS011;19280;42.646;21.150;2023-06-04T00:29:19;9.18;;;7.78;;
32918;SDS011;19280;42.646;21.150;2023-06-04T00:31:45;9.38;;;7.47;;
32918;SDS011;19280;42.646;21.150;2023-06-04T00:34:11;11.15;;;8.13;;
32918;SDS011;19280;42.646;21.150;2023-06-04T00:36:37;11.32;;;6.85;;
32918;SDS011;19280;42.646;21.150;2023-06-04T00:39:03;11.23;;;6.90;;
32918;SDS011;19280;42.646;21.150;2023-06-04T00:41:29;9.25;;;6.40;;
32918;SDS011;19280;42.646;21.150;2023-06-04T00:43:56;11.05;;;6.32;;
32918;SDS011;19280;42.646;21.150;2023-06-04T00:46:26;12.30;;;7.00;;
32918;SDS011;19280;42.646;21.150;2023-06-04T00:48:53;12.77;;;7.00;;
32918;SDS011;19280;42.646;21.150;2023-06-04T00:51:20;11.50;;;6.65;;
32918;SDS011;19280;42.646;21.150;2023-06-04T00:53:46;9.63;;;7.38;;
32918;SDS011;19280;42.646;21.150;2023-06-04T00:56:13;10.65;;;8.40;;
32918;SDS011;19280;42.646;21.150;2023-06-04T00:58:39;11.52;;;7.53;;
32918;SDS011;19280;42.646;21.150;2023-06-04T01:01:18;12.05;;;7.60;;
32918;SDS011;19280;42.646;21.150;2023-06-04T01:03:47;11.90;;;7.95;;
32918;SDS011;19280;42.646;21.150;2023-06-04T01:06:22;9.85;;;7.82;;
32918;SDS011;19280;42.646;21.150;2023-06-04T01:08:50;14.57;;;8.80;;
32918;SDS011;19280;42.646;21.150;2023-06-04T01:11:19;12.60;;;9.05;;
32918;SDS011;19280;42.646;21.150;2023-06-04T01:13:45;11.52;;;8.95;;
32918;SDS011;19280;42.646;21.150;2023-06-04T01:16:11;13.45;;;10.85;;
32918;SDS011;19280;42.646;21.150;2023-06-04T01:18:39;14.25;;;11.70;;
32918;SDS011;19280;42.646;21.150;2023-06-04T01:21:06;16.17;;;12.05;;
32918;SDS011;19280;42.646;21.150;2023-06-04T01:26:08;19.10;;;12.90;;
32918;SDS011;19280;42.646;21.150;2023-06-04T01:28:34;19.30;;;13.23;;
32918;SDS011;19280;42.646;21.150;2023-06-04T01:31:01;16.95;;;11.88;;
32918;SDS011;19280;42.646;21.150;2023-06-04T01:33:27;11.30;;;9.25;;
32918;SDS011;19280;42.646;21.150;2023-06-04T01:35:53;12.48;;;8.73;;
32918;SDS011;19280;42.646;21.150;2023-06-04T01:38:19;11.77;;;9.02;;
32918;SDS011;19280;42.646;21.150;2023-06-04T01:40:46;15.30;;;9.57;;
32918;SDS011;19280;42.646;21.150;2023-06-04T01:43:12;13.40;;;7.82;;
32918;SDS011;19280;42.646;21.150;2023-06-04T01:45:38;9.23;;;7.00;;
32918;SDS011;19280;42.646;21.150;2023-06-04T01:48:05;9.20;;;6.93;;
32918;SDS011;19280;42.646;21.150;2023-06-04T01:50:32;8.75;;;6.40;;
32918;SDS011;19280;42.646;21.150;2023-06-04T01:52:58;9.88;;;6.25;;
32918;SDS011;19280;42.646;21.150;2023-06-04T01:55:25;8.65;;;6.25;;
32918;SDS011;19280;42.646;21.150;2023-06-04T01:57:53;9.68;;;6.15;;
32918;SDS011;19280;42.646;21.150;2023-06-04T02:00:19;11.05;;;6.10;;
32918;SDS011;19280;42.646;21.150;2023-06-04T02:02:45;7.35;;;6.60;;
32918;SDS011;19280;42.646;21.150;2023-06-04T02:05:13;9.23;;;5.95;;
32918;SDS011;19280;42.646;21.150;2023-06-04T02:07:40;8.88;;;6.28;;
32918;SDS011;19280;42.646;21.150;2023-06-04T02:10:06;10.68;;;7.03;;
32918;SDS011;19280;42.646;21.150;2023-06-04T02:12:33;10.25;;;6.88;;
32918;SDS011;19280;42.646;21.150;2023-06-04T02:14:59;7.97;;;6.07;;
32918;SDS011;19280;42.646;21.150;2023-06-04T02:17:25;9.25;;;6.47;;
32918;SDS011;19280;42.646;21.150;2023-06-04T02:19:51;8.27;;;6.82;;
32918;SDS011;19280;42.646;21.150;2023-06-04T02:22:17;8.57;;;6.57;;
32918;SDS011;19280;42.646;21.150;2023-06-04T02:24:44;8.52;;;6.30;;
32918;SDS011;19280;42.646;21.150;2023-06-04T02:27:11;9.73;;;7.05;;
32918;SDS011;19280;42.646;21.150;2023-06-04T02:29:37;13.48;;;6.53;;
32918;SDS011;19280;42.646;21.150;2023-06-04T02:32:04;10.18;;;6.85;;
32918;SDS011;19280;42.646;21.150;2023-06-04T02:34:30;10.77;;;6.53;;
32918;SDS011;19280;42.646;21.150;2023-06-04T02:36:56;9.88;;;7.28;;
32918;SDS011;19280;42.646;21.150;2023-06-04T02:39:23;12.80;;;7.45;;
32918;SDS011;19280;42.646;21.150;2023-06-04T02:41:49;10.48;;;7.78;;
32918;SDS011;19280;42.646;21.150;2023-06-04T02:44:15;12.77;;;7.90;;
32918;SDS011;19280;42.646;21.150;2023-06-04T02:46:41;9.93;;;8.38;;
32918;SDS011;19280;42.646;21.150;2023-06-04T02:49:08;12.23;;;8.23;;
32918;SDS011;19280;42.646;21.150;2023-06-04T02:51:34;16.05;;;8.55;;
32918;SDS011;19280;42.646;21.150;2023-06-04T02:54:01;9.85;;;7.97;;
32918;SDS011;19280;42.646;21.150;2023-06-04T02:56:27;11.27;;;8.07;;
32918;SDS011;19280;42.646;21.150;2023-06-04T02:58:53;19.45;;;8.48;;
32918;SDS011;19280;42.646;21.150;2023-06-04T03:01:23;9.70;;;8.05;;
32918;SDS011;19280;42.646;21.150;2023-06-04T03:03:49;9.52;;;7.95;;
32918;SDS011;19280;42.646;21.150;2023-06-04T03:06:16;15.93;;;8.13;;
32918;SDS011;19280;42.646;21.150;2023-06-04T03:08:45;12.52;;;8.40;;
32918;SDS011;19280;42.646;21.150;2023-06-04T03:11:11;14.73;;;9.45;;
32918;SDS011;19280;42.646;21.150;2023-06-04T03:13:37;15.07;;;10.80;;
32918;SDS011;19280;42.646;21.150;2023-06-04T03:16:03;19.30;;;13.02;;
32918;SDS011;19280;42.646;21.150;2023-06-04T03:18:34;18.42;;;11.43;;
32918;SDS011;19280;42.646;21.150;2023-06-04T03:21:01;28.95;;;18.25;;
32918;SDS011;19280;42.646;21.150;2023-06-04T03:23:27;16.63;;;12.80;;
32918;SDS011;19280;42.646;21.150;2023-06-04T03:25:53;13.50;;;10.90;;
32918;SDS011;19280;42.646;21.150;2023-06-04T03:28:20;15.35;;;10.43;;
32918;SDS011;19280;42.646;21.150;2023-06-04T03:30:46;19.40;;;9.65;;
32918;SDS011;19280;42.646;21.150;2023-06-04T03:33:12;13.25;;;9.70;;
32918;SDS011;19280;42.646;21.150;2023-06-04T03:35:40;14.27;;;9.63;;
32918;SDS011;19280;42.646;21.150;2023-06-04T03:38:06;14.40;;;9.82;;
32918;SDS011;19280;42.646;21.150;2023-06-04T03:40:32;12.02;;;10.02;;
32918;SDS011;19280;42.646;21.150;2023-06-04T03:42:58;12.60;;;9.38;;
32918;SDS011;19280;42.646;21.150;2023-06-04T03:45:25;18.23;;;9.60;;
32918;SDS011;19280;42.646;21.150;2023-06-04T03:47:51;13.00;;;9.18;;
32918;SDS011;19280;42.646;21.150;2023-06-04T03:50:18;11.77;;;8.30;;
32918;SDS011;19280;42.646;21.150;2023-06-04T03:52:44;15.82;;;9.15;;
32918;SDS011;19280;42.646;21.150;2023-06-04T03:55:10;8.95;;;8.02;;
32918;SDS011;19280;42.646;21.150;2023-06-04T03:57:36;8.90;;;8.07;;
32918;SDS011;19280;42.646;21.150;2023-06-04T04:00:06;10.73;;;8.77;;
32918;SDS011;19280;42.646;21.150;2023-06-04T04:02:34;14.93;;;8.60;;
32918;SDS011;19280;42.646;21.150;2023-06-04T04:05:00;11.27;;;8.38;;
32918;SDS011;19280;42.646;21.150;2023-06-04T04:07:26;11.32;;;7.80;;
32918;SDS011;19280;42.646;21.150;2023-06-04T04:09:52;10.90;;;8.18;;
32918;SDS011;19280;42.646;21.150;2023-06-04T04:12:18;10.73;;;7.63;;
32918;SDS011;19280;42.646;21.150;2023-06-04T04:14:44;15.30;;;8.02;;
32918;SDS011;19280;42.646;21.150;2023-06-04T04:17:12;9.50;;;7.10;;
32918;SDS011;19280;42.646;21.150;2023-06-04T04:19:39;9.43;;;7.40;;
32918;SDS011;19280;42.646;21.150;2023-06-04T04:22:05;28.35;;;7.50;;
32918;SDS011;19280;42.646;21.150;2023-06-04T04:24:31;14.10;;;7.45;;
32918;SDS011;19280;42.646;21.150;2023-06-04T04:27:00;13.65;;;8.32;;
32918;SDS011;19280;42.646;21.150;2023-06-04T04:29:29;15.02;;;8.05;;
32918;SDS011;19280;42.646;21.150;2023-06-04T04:31:58;16.55;;;8.43;;
32918;SDS011;19280;42.646;21.150;2023-06-04T04:34:37;12.93;;;8.20;;
32918;SDS011;19280;42.646;21.150;2023-06-04T04:37:08;11.07;;;6.93;;
32918;SDS011;19280;42.646;21.150;2023-06-04T04:39:34;9.00;;;7.00;;
32918;SDS011;19280;42.646;21.150;2023-06-04T04:42:01;12.73;;;7.18;;
32918;SDS011;19280;42.646;21.150;2023-06-04T04:44:28;12.25;;;6.88;;
32918;SDS011;19280;42.646;21.150;2023-06-04T04:46:55;10.27;;;6.90;;
32918;SDS011;19280;42.646;21.150;2023-06-04T04:49:21;10.18;;;6.68;;
32918;SDS011;19280;42.646;21.150;2023-06-04T04:51:47;8.98;;;6.75;;
32918;SDS011;19280;42.646;21.150;2023-06-04T04:54:14;9.20;;;6.28;;
32918;SDS011;19280;42.646;21.150;2023-06-04T04:56:40;5.53;;;5.03;;
32918;SDS011;19280;42.646;21.150;2023-06-04T04:59:06;7.15;;;4.85;;
32918;SDS011;19280;42.646;21.150;2023-06-04T05:01:32;5.15;;;4.38;;
32918;SDS011;19280;42.646;21.150;2023-06-04T05:03:58;5.57;;;4.10;;
32918;SDS011;19280;42.646;21.150;2023-06-04T05:06:24;6.75;;;4.43;;
32918;SDS011;19280;42.646;21.150;2023-06-04T05:08:50;4.75;;;3.83;;
32918;SDS011;19280;42.646;21.150;2023-06-04T05:11:16;3.78;;;3.28;;
32918;SDS011;19280;42.646;21.150;2023-06-04T05:13:42;6.28;;;3.40;;
32918;SDS011;19280;42.646;21.150;2023-06-04T05:16:08;6.32;;;3.30;;
32918;SDS011;19280;42.646;21.150;2023-06-04T05:18:39;4.78;;;3.00;;
32918;SDS011;19280;42.646;21.150;2023-06-04T05:21:06;3.30;;;2.95;;
32918;SDS011;19280;42.646;21.150;2023-06-04T05:23:33;5.32;;;3.33;;
32918;SDS011;19280;42.646;21.150;2023-06-04T05:25:59;5.57;;;3.70;;
32918;SDS011;19280;42.646;21.150;2023-06-04T05:28:29;4.07;;;3.33;;
32918;SDS011;19280;42.646;21.150;2023-06-04T05:30:58;4.35;;;3.28;;
32918;SDS011;19280;42.646;21.150;2023-06-04T05:33:27;3.65;;;3.17;;
32918;SDS011;19280;42.646;21.150;2023-06-04T05:35:54;5.32;;;3.20;;
32918;SDS011;19280;42.646;21.150;2023-06-04T05:38:22;4.95;;;3.17;;
32918;SDS011;19280;42.646;21.150;2023-06-04T05:40:51;4.18;;;3.65;;
32918;SDS011;19280;42.646;21.150;2023-06-04T05:43:20;4.47;;;3.53;;
32918;SDS011;19280;42.646;21.150;2023-06-04T05:45:47;3.58;;;2.83;;
32918;SDS011;19280;42.646;21.150;2023-06-04T05:48:13;4.63;;;2.90;;
32918;SDS011;19280;42.646;21.150;2023-06-04T05:50:39;6.88;;;3.70;;
32918;SDS011;19280;42.646;21.150;2023-06-04T05:53:05;5.78;;;3.08;;
32918;SDS011;19280;42.646;21.150;2023-06-04T05:55:32;7.78;;;3.17;;
32918;SDS011;19280;42.646;21.150;2023-06-04T05:57:58;2.80;;;2.55;;
32918;SDS011;19280;42.646;21.150;2023-06-04T06:00:24;7.45;;;3.03;;
32918;SDS011;19280;42.646;21.150;2023-06-04T06:02:50;4.13;;;2.78;;
32918;SDS011;19280;42.646;21.150;2023-06-04T06:05:20;6.32;;;2.70;;
32918;SDS011;19280;42.646;21.150;2023-06-04T06:07:46;6.20;;;3.55;;
32918;SDS011;19280;42.646;21.150;2023-06-04T06:10:12;7.32;;;3.80;;
32918;SDS011;19280;42.646;21.150;2023-06-04T06:12:39;4.13;;;3.50;;
32918;SDS011;19280;42.646;21.150;2023-06-04T06:15:06;5.95;;;3.58;;
32918;SDS011;19280;42.646;21.150;2023-06-04T06:17:32;7.32;;;3.85;;
32918;SDS011;19280;42.646;21.150;2023-06-04T06:19:59;6.78;;;3.67;;
32918;SDS011;19280;42.646;21.150;2023-06-04T06:22:25;5.72;;;3.80;;
32918;SDS011;19280;42.646;21.150;2023-06-04T06:24:52;10.45;;;4.10;;
32918;SDS011;19280;42.646;21.150;2023-06-04T06:27:18;4.72;;;3.63;;
32918;SDS011;19280;42.646;21.150;2023-06-04T06:29:44;6.72;;;4.40;;
32918;SDS011;19280;42.646;21.150;2023-06-04T06:32:10;4.93;;;4.13;;
32918;SDS011;19280;42.646;21.150;2023-06-04T06:34:36;4.90;;;3.60;;
32918;SDS011;19280;42.646;21.150;2023-06-04T06:37:03;5.95;;;4.13;;
32918;SDS011;19280;42.646;21.150;2023-06-04T06:39:29;4.43;;;3.15;;
32918;SDS011;19280;42.646;21.150;2023-06-04T06:41:55;7.60;;;3.63;;
32918;SDS011;19280;42.646;21.150;2023-06-04T06:44:21;5.57;;;3.83;;
32918;SDS011;19280;42.646;21.150;2023-06-04T06:46:47;9.20;;;3.90;;
32918;SDS011;19280;42.646;21.150;2023-06-04T06:49:14;9.20;;;4.15;;
32918;SDS011;19280;42.646;21.150;2023-06-04T06:51:40;7.95;;;3.53;;
32918;SDS011;19280;42.646;21.150;2023-06-04T06:54:08;5.93;;;3.40;;
32918;SDS011;19280;42.646;21.150;2023-06-04T06:56:35;6.10;;;3.13;;
32918;SDS011;19280;42.646;21.150;2023-06-04T06:59:01;9.02;;;3.60;;
32918;SDS011;19280;42.646;21.150;2023-06-04T07:01:27;8.73;;;4.05;;
32918;SDS011;19280;42.646;21.150;2023-06-04T07:03:53;4.20;;;3.80;;
32918;SDS011;19280;42.646;21.150;2023-06-04T07:06:19;7.00;;;3.67;;
32918;SDS011;19280;42.646;21.150;2023-06-04T07:08:45;6.75;;;4.25;;
32918;SDS011;19280;42.646;21.150;2023-06-04T07:11:13;6.30;;;3.90;;
32918;SDS011;19280;42.646;21.150;2023-06-04T07:13:39;6.95;;;4.40;;
32918;SDS011;19280;42.646;21.150;2023-06-04T07:16:05;5.32;;;4.45;;
32918;SDS011;19280;42.646;21.150;2023-06-04T07:18:32;8.20;;;4.65;;
32918;SDS011;19280;42.646;21.150;2023-06-04T07:20:58;5.55;;;4.07;;
32918;SDS011;19280;42.646;21.150;2023-06-04T07:23:24;5.88;;;4.38;;
32918;SDS011;19280;42.646;21.150;2023-06-04T07:25:50;11.05;;;4.20;;
32918;SDS011;19280;42.646;21.150;2023-06-04T07:28:16;6.25;;;4.10;;
32918;SDS011;19280;42.646;21.150;2023-06-04T07:30:44;6.95;;;3.95;;
32918;SDS011;19280;42.646;21.150;2023-06-04T07:33:10;7.82;;;4.38;;
32918;SDS011;19280;42.646;21.150;2023-06-04T07:35:36;5.55;;;4.25;;
32918;SDS011;19280;42.646;21.150;2023-06-04T07:38:02;5.68;;;4.03;;
32918;SDS011;19280;42.646;21.150;2023-06-04T07:40:28;7.28;;;4.18;;
32918;SDS011;19280;42.646;21.150;2023-06-04T07:42:55;6.90;;;3.90;;
32918;SDS011;19280;42.646;21.150;2023-06-04T07:45:21;5.82;;;4.18;;
32918;SDS011;19280;42.646;21.150;2023-06-04T07:47:47;8.70;;;4.10;;
32918;SDS011;19280;42.646;21.150;2023-06-04T07:50:13;5.10;;;3.47;;
32918;SDS011;19280;42.646;21.150;2023-06-04T07:52:39;5.63;;;4.00;;
32918;SDS011;19280;42.646;21.150;2023-06-04T07:55:05;10.32;;;3.97;;
32918;SDS011;19280;42.646;21.150;2023-06-04T07:57:33;9.13;;;3.65;;
32918;SDS011;19280;42.646;21.150;2023-06-04T08:00:00;8.93;;;3.22;;
32918;SDS011;19280;42.646;21.150;2023-06-04T08:02:29;6.68;;;3.13;;
32918;SDS011;19280;42.646;21.150;2023-06-04T08:04:55;5.20;;;2.70;;
32918;SDS011;19280;42.646;21.150;2023-06-04T08:07:21;3.58;;;2.90;;
32918;SDS011;19280;42.646;21.150;2023-06-04T08:09:47;3.60;;;3.22;;
32918;SDS011;19280;42.646;21.150;2023-06-04T08:12:14;3.78;;;3.33;;
32918;SDS011;19280;42.646;21.150;2023-06-04T08:14:41;2.90;;;2.60;;
32918;SDS011;19280;42.646;21.150;2023-06-04T08:17:07;6.93;;;3.00;;
32918;SDS011;19280;42.646;21.150;2023-06-04T08:19:34;4.30;;;3.10;;
32918;SDS011;19280;42.646;21.150;2023-06-04T08:22:00;5.75;;;2.67;;
32918;SDS011;19280;42.646;21.150;2023-06-04T08:24:26;5.88;;;3.05;;
32918;SDS011;19280;42.646;21.150;2023-06-04T08:26:52;6.07;;;2.85;;
32918;SDS011;19280;42.646;21.150;2023-06-04T08:29:18;3.33;;;2.30;;
32918;SDS011;19280;42.646;21.150;2023-06-04T08:31:45;4.15;;;2.70;;
32918;SDS011;19280;42.646;21.150;2023-06-04T08:34:11;4.20;;;2.33;;
32918;SDS011;19280;42.646;21.150;2023-06-04T08:36:37;3.40;;;2.33;;
32918;SDS011;19280;42.646;21.150;2023-06-04T08:39:03;3.88;;;2.60;;
32918;SDS011;19280;42.646;21.150;2023-06-04T08:41:34;3.28;;;2.28;;
32918;SDS011;19280;42.646;21.150;2023-06-04T08:44:00;6.10;;;2.25;;
32918;SDS011;19280;42.646;21.150;2023-06-04T08:46:28;6.25;;;1.98;;
32918;SDS011;19280;42.646;21.150;2023-06-04T08:48:55;2.55;;;1.60;;
32918;SDS011;19280;42.646;21.150;2023-06-04T08:51:21;6.43;;;2.03;;
32918;SDS011;19280;42.646;21.150;2023-06-04T08:53:48;4.78;;;2.20;;
32918;SDS011;19280;42.646;21.150;2023-06-04T08:56:19;7.38;;;2.45;;
32918;SDS011;19280;42.646;21.150;2023-06-04T08:58:47;3.15;;;1.83;;
32918;SDS011;19280;42.646;21.150;2023-06-04T09:01:14;5.40;;;2.08;;
32918;SDS011;19280;42.646;21.150;2023-06-04T09:03:40;2.22;;;2.03;;
32918;SDS011;19280;42.646;21.150;2023-06-04T09:06:06;4.30;;;1.90;;
32918;SDS011;19280;42.646;21.150;2023-06-04T09:08:34;4.32;;;2.00;;
32918;SDS011;19280;42.646;21.150;2023-06-04T09:11:03;2.40;;;1.60;;
32918;SDS011;19280;42.646;21.150;2023-06-04T09:13:31;9.05;;;2.65;;
32918;SDS011;19280;42.646;21.150;2023-06-04T09:16:04;9.55;;;6.25;;
32918;SDS011;19280;42.646;21.150;2023-06-04T09:18:33;3.90;;;2.80;;
32918;SDS011;19280;42.646;21.150;2023-06-04T09:21:06;2.08;;;1.70;;
32918;SDS011;19280;42.646;21.150;2023-06-04T09:23:50;3.28;;;1.50;;
32918;SDS011;19280;42.646;21.150;2023-06-04T09:26:16;3.10;;;2.08;;
32918;SDS011;19280;42.646;21.150;2023-06-04T09:28:43;3.35;;;1.90;;
32918;SDS011;19280;42.646;21.150;2023-06-04T09:31:10;2.45;;;1.58;;
32918;SDS011;19280;42.646;21.150;2023-06-04T09:33:42;1.73;;;1.40;;
32918;SDS011;19280;42.646;21.150;2023-06-04T09:36:09;1.95;;;1.67;;
32918;SDS011;19280;42.646;21.150;2023-06-04T09:38:35;2.13;;;1.40;;
32918;SDS011;19280;42.646;21.150;2023-06-04T09:41:02;5.38;;;1.27;;
32918;SDS011;19280;42.646;21.150;2023-06-04T09:43:31;4.50;;;1.85;;
32918;SDS011;19280;42.646;21.150;2023-06-04T09:46:08;1.98;;;1.45;;
32918;SDS011;19280;42.646;21.150;2023-06-04T09:48:34;2.70;;;1.75;;
32918;SDS011;19280;42.646;21.150;2023-06-04T09:51:13;1.45;;;1.20;;
32918;SDS011;19280;42.646;21.150;2023-06-04T09:53:54;1.50;;;1.40;;
32918;SDS011;19280;42.646;21.150;2023-06-04T09:56:21;1.98;;;1.45;;
32918;SDS011;19280;42.646;21.150;2023-06-04T09:58:48;3.35;;;1.25;;
32918;SDS011;19280;42.646;21.150;2023-06-04T10:01:15;1.40;;;1.13;;
32918;SDS011;19280;42.646;21.150;2023-06-04T10:03:42;3.53;;;1.50;;
32918;SDS011;19280;42.646;21.150;2023-06-04T10:06:12;1.33;;;0.93;;
32918;SDS011;19280;42.646;21.150;2023-06-04T10:08:41;2.85;;;1.27;;
32918;SDS011;19280;42.646;21.150;2023-06-04T10:11:07;2.40;;;1.10;;
32918;SDS011;19280;42.646;21.150;2023-06-04T10:13:38;1.42;;;0.95;;
32918;SDS011;19280;42.646;21.150;2023-06-04T10:16:07;1.88;;;1.08;;
32918;SDS011;19280;42.646;21.150;2023-06-04T10:18:33;2.63;;;0.80;;
32918;SDS011;19280;42.646;21.150;2023-06-04T10:21:00;2.35;;;0.95;;
32918;SDS011;19280;42.646;21.150;2023-06-04T10:23:26;1.42;;;0.80;;
32918;SDS011;19280;42.646;21.150;2023-06-04T10:25:54;1.95;;;0.70;;
32918;SDS011;19280;42.646;21.150;2023-06-04T10:28:21;1.98;;;1.42;;
32918;SDS011;19280;42.646;21.150;2023-06-04T10:30:48;3.90;;;1.88;;
32918;SDS011;19280;42.646;21.150;2023-06-04T10:33:18;2.08;;;1.35;;
32918;SDS011;19280;42.646;21.150;2023-06-04T10:35:45;3.00;;;1.02;;
32918;SDS011;19280;42.646;21.150;2023-06-04T10:38:12;2.08;;;1.08;;
32918;SDS011;19280;42.646;21.150;2023-06-04T10:40:41;1.08;;;0.60;;
32918;SDS011;19280;42.646;21.150;2023-06-04T10:43:08;1.23;;;1.05;;
32918;SDS011;19280;42.646;21.150;2023-06-04T10:45:34;5.72;;;1.73;;
32918;SDS011;19280;42.646;21.150;2023-06-04T10:48:03;1.48;;;1.35;;
32918;SDS011;19280;42.646;21.150;2023-06-04T10:50:31;1.52;;;0.88;;
32918;SDS011;19280;42.646;21.150;2023-06-04T10:52:57;2.03;;;1.10;;
32918;SDS011;19280;42.646;21.150;2023-06-04T10:55:24;1.88;;;0.90;;
32918;SDS011;19280;42.646;21.150;2023-06-04T10:57:54;2.50;;;0.68;;
32918;SDS011;19280;42.646;21.150;2023-06-04T11:00:21;1.38;;;0.90;;
32918;SDS011;19280;42.646;21.150;2023-06-04T11:02:56;1.40;;;0.75;;
32918;SDS011;19280;42.646;21.150;2023-06-04T11:05:22;2.58;;;1.02;;
32918;SDS011;19280;42.646;21.150;2023-06-04T11:07:59;1.65;;;0.90;;
32918;SDS011;19280;42.646;21.150;2023-06-04T11:10:30;2.85;;;1.00;;
32918;SDS011;19280;42.646;21.150;2023-06-04T11:12:57;2.10;;;0.90;;
32918;SDS011;19280;42.646;21.150;2023-06-04T11:15:23;2.38;;;1.05;;
32918;SDS011;19280;42.646;21.150;2023-06-04T11:17:50;1.63;;;0.80;;
32918;SDS011;19280;42.646;21.150;2023-06-04T11:20:17;8.13;;;0.88;;
32918;SDS011;19280;42.646;21.150;2023-06-04T11:22:53;2.72;;;0.90;;
32918;SDS011;19280;42.646;21.150;2023-06-04T11:25:21;1.98;;;0.80;;
32918;SDS011;19280;42.646;21.150;2023-06-04T11:27:47;2.72;;;0.88;;
32918;SDS011;19280;42.646;21.150;2023-06-04T11:30:14;2.60;;;1.10;;
32918;SDS011;19280;42.646;21.150;2023-06-04T11:32:41;3.38;;;0.90;;
32918;SDS011;19280;42.646;21.150;2023-06-04T11:35:07;5.25;;;1.00;;
32918;SDS011;19280;42.646;21.150;2023-06-04T11:37:34;1.40;;;1.10;;
32918;SDS011;19280;42.646;21.150;2023-06-04T11:40:00;1.17;;;0.90;;
32918;SDS011;19280;42.646;21.150;2023-06-04T11:42:27;3.95;;;1.73;;
32918;SDS011;19280;42.646;21.150;2023-06-04T11:44:56;1.30;;;1.13;;
32918;SDS011;19280;42.646;21.150;2023-06-04T11:47:23;1.60;;;0.73;;
32918;SDS011;19280;42.646;21.150;2023-06-04T11:49:56;1.00;;;0.45;;
32918;SDS011;19280;42.646;21.150;2023-06-04T11:52:22;2.90;;;1.00;;
32918;SDS011;19280;42.646;21.150;2023-06-04T11:54:49;0.75;;;0.70;;
32918;SDS011;19280;42.646;21.150;2023-06-04T11:57:15;1.13;;;0.70;;
32918;SDS011;19280;42.646;21.150;2023-06-04T11:59:41;1.23;;;0.70;;
32918;SDS011;19280;42.646;21.150;2023-06-04T12:02:07;2.35;;;0.93;;
32918;SDS011;19280;42.646;21.150;2023-06-04T12:04:34;1.38;;;0.63;;
32918;SDS011;19280;42.646;21.150;2023-06-04T12:07:01;1.55;;;0.90;;
32918;SDS011;19280;42.646;21.150;2023-06-04T12:09:31;0.77;;;0.70;;
32918;SDS011;19280;42.646;21.150;2023-06-04T12:12:03;1.70;;;1.10;;
32918;SDS011;19280;42.646;21.150;2023-06-04T12:14:29;2.83;;;0.95;;
32918;SDS011;19280;42.646;21.150;2023-06-04T12:16:59;3.17;;;1.10;;
32918;SDS011;19280;42.646;21.150;2023-06-04T12:19:26;2.15;;;0.60;;
32918;SDS011;19280;42.646;21.150;2023-06-04T12:22:02;1.70;;;0.70;;
32918;SDS011;19280;42.646;21.150;2023-06-04T12:24:28;3.53;;;0.85;;
32918;SDS011;19280;42.646;21.150;2023-06-04T12:27:07;1.35;;;0.80;;
32918;SDS011;19280;42.646;21.150;2023-06-04T12:29:34;0.98;;;0.70;;
32918;SDS011;19280;42.646;21.150;2023-06-04T12:32:09;2.38;;;0.85;;
32918;SDS011;19280;42.646;21.150;2023-06-04T12:34:40;1.95;;;0.80;;
32918;SDS011;19280;42.646;21.150;2023-06-04T12:37:07;4.47;;;0.88;;
32918;SDS011;19280;42.646;21.150;2023-06-04T12:39:34;1.83;;;0.80;;
32918;SDS011;19280;42.646;21.150;2023-06-04T12:42:01;3.97;;;0.90;;
32918;SDS011;19280;42.646;21.150;2023-06-04T12:44:28;2.10;;;0.70;;
32918;SDS011;19280;42.646;21.150;2023-06-04T12:46:54;2.90;;;0.88;;
32918;SDS011;19280;42.646;21.150;2023-06-04T12:49:20;1.25;;;0.68;;
32918;SDS011;19280;42.646;21.150;2023-06-04T12:51:46;1.00;;;0.77;;
32918;SDS011;19280;42.646;21.150;2023-06-04T12:54:12;0.80;;;0.65;;
32918;SDS011;19280;42.646;21.150;2023-06-04T12:56:39;2.45;;;0.70;;
32918;SDS011;19280;42.646;21.150;2023-06-04T12:59:06;0.80;;;0.70;;
32918;SDS011;19280;42.646;21.150;2023-06-04T13:01:32;1.00;;;0.90;;
32918;SDS011;19280;42.646;21.150;2023-06-04T13:03:58;0.77;;;0.63;;
32918;SDS011;19280;42.646;21.150;2023-06-04T13:06:24;1.00;;;0.70;;
32918;SDS011;19280;42.646;21.150;2023-06-04T13:08:51;2.05;;;0.77;;
32918;SDS011;19280;42.646;21.150;2023-06-04T13:11:17;2.67;;;0.85;;
32918;SDS011;19280;42.646;21.150;2023-06-04T13:13:43;1.75;;;0.60;;
32918;SDS011;19280;42.646;21.150;2023-06-04T13:16:09;0.70;;;0.63;;
32918;SDS011;19280;42.646;21.150;2023-06-04T13:18:35;2.35;;;1.17;;
32918;SDS011;19280;42.646;21.150;2023-06-04T13:21:02;0.73;;;0.60;;
32918;SDS011;19280;42.646;21.150;2023-06-04T13:23:28;3.58;;;0.77;;
32918;SDS011;19280;42.646;21.150;2023-06-04T13:25:54;1.23;;;0.80;;
32918;SDS011;19280;42.646;21.150;2023-06-04T13:28:20;1.00;;;0.68;;
32918;SDS011;19280;42.646;21.150;2023-06-04T13:30:46;1.67;;;0.88;;
32918;SDS011;19280;42.646;21.150;2023-06-04T13:33:12;2.05;;;0.80;;
32918;SDS011;19280;42.646;21.150;2023-06-04T13:35:38;1.05;;;0.95;;
32918;SDS011;19280;42.646;21.150;2023-06-04T13:38:05;1.42;;;0.88;;
32918;SDS011;19280;42.646;21.150;2023-06-04T13:40:33;2.10;;;0.80;;
32918;SDS011;19280;42.646;21.150;2023-06-04T13:42:59;1.23;;;0.85;;
32918;SDS011;19280;42.646;21.150;2023-06-04T13:45:25;1.15;;;0.90;;
32918;SDS011;19280;42.646;21.150;2023-06-04T13:47:51;2.13;;;0.80;;
32918;SDS011;19280;42.646;21.150;2023-06-04T13:50:17;2.22;;;0.70;;
32918;SDS011;19280;42.646;21.150;2023-06-04T13:52:44;0.85;;;0.60;;
32918;SDS011;19280;42.646;21.150;2023-06-04T13:55:11;1.67;;;0.73;;
32918;SDS011;19280;42.646;21.150;2023-06-04T13:57:38;0.90;;;0.60;;
32918;SDS011;19280;42.646;21.150;2023-06-04T14:00:04;1.80;;;0.43;;
32918;SDS011;19280;42.646;21.150;2023-06-04T14:02:32;0.82;;;0.60;;
32918;SDS011;19280;42.646;21.150;2023-06-04T14:04:58;1.30;;;0.50;;
32918;SDS011;19280;42.646;21.150;2023-06-04T14:07:24;0.82;;;0.60;;
32918;SDS011;19280;42.646;21.150;2023-06-04T14:09:51;1.02;;;0.68;;
32918;SDS011;19280;42.646;21.150;2023-06-04T14:12:20;1.27;;;0.60;;
32918;SDS011;19280;42.646;21.150;2023-06-04T14:14:46;2.80;;;0.70;;
32918;SDS011;19280;42.646;21.150;2023-06-04T14:17:12;6.88;;;4.60;;
32918;SDS011;19280;42.646;21.150;2023-06-04T14:19:39;3.03;;;0.70;;
32918;SDS011;19280;42.646;21.150;2023-06-04T14:22:05;5.95;;;2.60;;
32918;SDS011;19280;42.646;21.150;2023-06-04T14:24:31;1.17;;;0.73;;
32918;SDS011;19280;42.646;21.150;2023-06-04T14:26:57;1.83;;;0.60;;
32918;SDS011;19280;42.646;21.150;2023-06-04T14:29:23;2.08;;;0.70;;
32918;SDS011;19280;42.646;21.150;2023-06-04T14:31:49;2.17;;;0.88;;